Wetterdaten: Dienstag, 11.01.2011
Datum Zeit Temp. A. Feuchte A. Luftdruck Regen Wind Richtung Richtung Sonnenschein UV Solar Windben
11.01.2011 00:00 -1,4 C 87 % 1016,4 hPa 0,0 mm 6,4 km/h (2 Bft) O 90 0 min 0 UV-I 0 W/m 16,1 km/h (3 Bft)
11.01.2011 00:10 -1,3 C 87 % 1016,1 hPa 0,0 mm 6,4 km/h (2 Bft) O 90 0 min 0 UV-I 0 W/m 16,1 km/h (3 Bft)
11.01.2011 00:20 -1,3 C 87 % 1016,0 hPa 0,0 mm 3,2 km/h (1 Bft) O 90 0 min 0 UV-I 0 W/m 11,3 km/h (2 Bft)
11.01.2011 00:30 -1,4 C 87 % 1015,8 hPa 0,0 mm 4,8 km/h (1 Bft) O-SO 112 0 min 0 UV-I 0 W/m 11,3 km/h (2 Bft)
11.01.2011 00:40 -1,4 C 87 % 1015,9 hPa 0,0 mm 3,2 km/h (1 Bft) O 90 0 min 0 UV-I 0 W/m 9,7 km/h (2 Bft)
11.01.2011 00:50 -1,4 C 87 % 1015,5 hPa 0,0 mm 3,2 km/h (1 Bft) O-SO 112 0 min 0 UV-I 0 W/m 11,3 km/h (2 Bft)
11.01.2011 01:00 -1,5 C 87 % 1015,4 hPa 0,0 mm 3,2 km/h (1 Bft) O 90 0 min 0 UV-I 0 W/m 14,5 km/h (3 Bft)
11.01.2011 01:10 -1,5 C 87 % 1015,2 hPa 0,0 mm 3,2 km/h (1 Bft) O 90 0 min 0 UV-I 0 W/m 9,7 km/h (2 Bft)
11.01.2011 01:20 -1,5 C 87 % 1015,0 hPa 0,0 mm 4,8 km/h (1 Bft) O-SO 112 0 min 0 UV-I 0 W/m 16,1 km/h (3 Bft)
11.01.2011 01:30 -1,6 C 87 % 1014,9 hPa 0,0 mm 3,2 km/h (1 Bft) O-SO 112 0 min 0 UV-I 0 W/m 9,7 km/h (2 Bft)
11.01.2011 01:40 -1,6 C 87 % 1014,7 hPa 0,0 mm 4,8 km/h (1 Bft) O-SO 112 0 min 0 UV-I 0 W/m 11,3 km/h (2 Bft)
11.01.2011 01:50 -1,6 C 87 % 1014,6 hPa 0,0 mm 4,8 km/h (1 Bft) O 90 0 min 0 UV-I 0 W/m 11,3 km/h (2 Bft)
11.01.2011 02:00 -1,6 C 87 % 1014,5 hPa 0,0 mm 4,8 km/h (1 Bft) O-SO 112 0 min 0 UV-I 0 W/m 11,3 km/h (2 Bft)
11.01.2011 02:10 -1,6 C 87 % 1014,5 hPa 0,0 mm 3,2 km/h (1 Bft) O-SO 112 0 min 0 UV-I 0 W/m 9,7 km/h (2 Bft)
11.01.2011 02:20 -1,6 C 87 % 1014,4 hPa 0,0 mm 0,0 km/h (0 Bft) O-SO 112 0 min 0 UV-I 0 W/m 1,6 km/h (1 Bft)
11.01.2011 02:30 -1,6 C 87 % 1014,3 hPa 0,0 mm 0,0 km/h (0 Bft) O-SO 112 0 min 0 UV-I 0 W/m 4,8 km/h (1 Bft)
11.01.2011 02:40 -1,7 C 87 % 1014,3 hPa 0,0 mm 1,6 km/h (1 Bft) SO 135 0 min 0 UV-I 0 W/m 6,4 km/h (2 Bft)
11.01.2011 02:50 -1,7 C 87 % 1014,3 hPa 0,0 mm 1,6 km/h (1 Bft) SO 135 0 min 0 UV-I 0 W/m 6,4 km/h (2 Bft)
11.01.2011 03:00 -1,8 C 87 % 1014,3 hPa 0,0 mm 1,6 km/h (1 Bft) O-SO 112 0 min 0 UV-I 0 W/m 6,4 km/h (2 Bft)
11.01.2011 03:10 -1,7 C 87 % 1014,1 hPa 0,0 mm 4,8 km/h (1 Bft) SO 135 0 min 0 UV-I 0 W/m 16,1 km/h (3 Bft)
11.01.2011 03:20 -1,7 C 87 % 1013,9 hPa 0,0 mm 4,8 km/h (1 Bft) O-SO 112 0 min 0 UV-I 0 W/m 14,5 km/h (3 Bft)
11.01.2011 03:30 -1,7 C 87 % 1013,7 hPa 0,0 mm 4,8 km/h (1 Bft) O-SO 112 0 min 0 UV-I 0 W/m 16,1 km/h (3 Bft)
11.01.2011 03:40 -1,6 C 87 % 1013,7 hPa 0,0 mm 3,2 km/h (1 Bft) O-SO 112 0 min 0 UV-I 0 W/m 11,3 km/h (2 Bft)
11.01.2011 03:50 -1,6 C 87 % 1013,5 hPa 0,0 mm 1,6 km/h (1 Bft) O-SO 112 0 min 0 UV-I 0 W/m 14,5 km/h (3 Bft)
11.01.2011 04:00 -1,6 C 87 % 1013,5 hPa 0,0 mm 1,6 km/h (1 Bft) O-SO 112 0 min 0 UV-I 0 W/m 6,4 km/h (2 Bft)
11.01.2011 04:10 -1,6 C 87 % 1013,5 hPa 0,0 mm 1,6 km/h (1 Bft) O-SO 112 0 min 0 UV-I 0 W/m 9,7 km/h (2 Bft)
11.01.2011 04:20 -1,6 C 87 % 1013,3 hPa 0,0 mm 1,6 km/h (1 Bft) O-SO 112 0 min 0 UV-I 0 W/m 6,4 km/h (2 Bft)
11.01.2011 04:30 -1,7 C 87 % 1013,3 hPa 0,0 mm 1,6 km/h (1 Bft) O-SO 112 0 min 0 UV-I 0 W/m 6,4 km/h (2 Bft)
11.01.2011 04:40 -1,8 C 87 % 1013,1 hPa 0,0 mm 1,6 km/h (1 Bft) O-SO 112 0 min 0 UV-I 0 W/m 6,4 km/h (2 Bft)
11.01.2011 04:50 -1,8 C 87 % 1013,0 hPa 0,0 mm 1,6 km/h (1 Bft) SO 135 0 min 0 UV-I 0 W/m 8,0 km/h (2 Bft)
11.01.2011 05:00 -1,8 C 87 % 1012,7 hPa 0,0 mm 1,6 km/h (1 Bft) O-NO 67 0 min 0 UV-I 0 W/m 6,4 km/h (2 Bft)
11.01.2011 05:10 -1,7 C 88 % 1012,4 hPa 0,0 mm 3,2 km/h (1 Bft) O 90 0 min 0 UV-I 0 W/m 9,7 km/h (2 Bft)
11.01.2011 05:20 -1,6 C 88 % 1011,9 hPa 0,0 mm 3,2 km/h (1 Bft) O-SO 112 0 min 0 UV-I 0 W/m 8,0 km/h (2 Bft)
11.01.2011 05:30 -1,4 C 88 % 1011,9 hPa 0,0 mm 3,2 km/h (1 Bft) O 90 0 min 0 UV-I 0 W/m 8,0 km/h (2 Bft)
11.01.2011 05:40 -1,3 C 88 % 1011,7 hPa 0,0 mm 3,2 km/h (1 Bft) O-SO 112 0 min 0 UV-I 0 W/m 8,0 km/h (2 Bft)
11.01.2011 05:50 -1,2 C 88 % 1011,3 hPa 0,0 mm 3,2 km/h (1 Bft) O-SO 112 0 min 0 UV-I 0 W/m 11,3 km/h (2 Bft)
11.01.2011 06:00 -1,1 C 88 % 1011,0 hPa 0,0 mm 3,2 km/h (1 Bft) O 90 0 min 0 UV-I 0 W/m 8,0 km/h (2 Bft)
11.01.2011 06:10 -0,8 C 88 % 1010,9 hPa 0,0 mm 3,2 km/h (1 Bft) O-SO 112 0 min 0 UV-I 0 W/m 9,7 km/h (2 Bft)
11.01.2011 06:20 -0,7 C 89 % 1010,6 hPa 0,0 mm 4,8 km/h (1 Bft) O-SO 112 0 min 0 UV-I 0 W/m 14,5 km/h (3 Bft)
11.01.2011 06:30 -0,4 C 89 % 1010,2 hPa 0,0 mm 4,8 km/h (1 Bft) O-SO 112 0 min 0 UV-I 0 W/m 14,5 km/h (3 Bft)
11.01.2011 06:40 -0,3 C 88 % 1010,1 hPa 0,0 mm 4,8 km/h (1 Bft) O-SO 112 0 min 0 UV-I 0 W/m 12,9 km/h (3 Bft)
11.01.2011 06:50 -0,2 C 88 % 1010,0 hPa 0,0 mm 6,4 km/h (2 Bft) O-SO 112 0 min 0 UV-I 0 W/m 17,7 km/h (3 Bft)
11.01.2011 07:00 -0,2 C 88 % 1009,9 hPa 0,0 mm 3,2 km/h (1 Bft) SO 135 0 min 0 UV-I 0 W/m 11,3 km/h (2 Bft)
11.01.2011 07:10 -0,2 C 88 % 1009,7 hPa 0,0 mm 3,2 km/h (1 Bft) SO 135 0 min 0 UV-I 0 W/m 9,7 km/h (2 Bft)
11.01.2011 07:20 -0,2 C 87 % 1009,3 hPa 0,0 mm 3,2 km/h (1 Bft) SO 135 0 min 0 UV-I 0 W/m 11,3 km/h (2 Bft)
11.01.2011 07:30 -0,2 C 87 % 1009,1 hPa 0,0 mm 1,6 km/h (1 Bft) SO 135 0 min 0 UV-I 0 W/m 9,7 km/h (2 Bft)
11.01.2011 07:40 -0,3 C 87 % 1009,0 hPa 0,0 mm 0,0 km/h (0 Bft) SO 135 0 min 0 UV-I 0 W/m 3,2 km/h (1 Bft)
11.01.2011 07:50 -0,4 C 87 % 1008,8 hPa 0,0 mm 1,6 km/h (1 Bft) O 90 0 min 0 UV-I 0 W/m 6,4 km/h (2 Bft)
11.01.2011 08:00 -0,5 C 87 % 1008,7 hPa 0,0 mm 0,8 km/h (0 Bft) SO 133 0 min 0 UV-I 0 W/m 4,8 km/h (1 Bft)
11.01.2011 08:10 -0,6 C 87 % 1008,7 hPa 0,0 mm 0,0 km/h (0 Bft) O-SO 112 0 min 0 UV-I 0 W/m 4,8 km/h (1 Bft)
11.01.2011 08:20 -0,7 C 87 % 1008,7 hPa 0,0 mm 1,6 km/h (1 Bft) O-SO 112 0 min 0 UV-I 5 W/m 6,4 km/h (2 Bft)
11.01.2011 08:30 -0,7 C 87 % 1008,6 hPa 0,0 mm 1,6 km/h (1 Bft) O-SO 112 0 min 0 UV-I 7 W/m 4,8 km/h (1 Bft)
11.01.2011 08:40 -0,7 C 87 % 1008,4 hPa 0,0 mm 3,2 km/h (1 Bft) O-SO 112 0 min 0 UV-I 9 W/m 6,4 km/h (2 Bft)
11.01.2011 08:50 -0,7 C 88 % 1008,3 hPa 0,0 mm 3,2 km/h (1 Bft) O-SO 112 0 min 0 UV-I 12 W/m 11,3 km/h (2 Bft)
11.01.2011 09:00 -0,6 C 88 % 1007,9 hPa 0,0 mm 3,2 km/h (1 Bft) O-SO 112 0 min 0 UV-I 16 W/m 6,4 km/h (2 Bft)
11.01.2011 09:10 -0,5 C 88 % 1007,7 hPa 0,0 mm 1,6 km/h (1 Bft) SO 135 0 min 0 UV-I 19 W/m 4,8 km/h (1 Bft)
11.01.2011 09:20 -0,4 C 88 % 1007,7 hPa 0,0 mm 3,2 km/h (1 Bft) O-SO 112 0 min 0 UV-I 23 W/m 8,0 km/h (2 Bft)
11.01.2011 09:30 -0,3 C 88 % 1007,5 hPa 0,0 mm 1,6 km/h (1 Bft) SO 135 0 min 0 UV-I 25 W/m 8,0 km/h (2 Bft)
11.01.2011 09:40 -0,1 C 88 % 1007,5 hPa 0,0 mm 3,2 km/h (1 Bft) O-SO 112 0 min 0 UV-I 26 W/m 8,0 km/h (2 Bft)
11.01.2011 09:50 0,1 C 88 % 1007,2 hPa 0,0 mm 1,6 km/h (1 Bft) O-SO 112 0 min 0 UV-I 30 W/m 9,7 km/h (2 Bft)
11.01.2011 10:00 0,2 C 88 % 1007,1 hPa 0,0 mm 3,2 km/h (1 Bft) O-SO 112 0 min 0 UV-I 33 W/m 8,0 km/h (2 Bft)
11.01.2011 10:10 0,3 C 89 % 1006,9 hPa 0,0 mm 3,2 km/h (1 Bft) O-SO 112 10 min 0 UV-I 176 W/m 11,3 km/h (2 Bft)
11.01.2011 10:20 1,1 C 87 % 1006,8 hPa 0,0 mm 3,2 km/h (1 Bft) SO 135 10 min 0 UV-I 190 W/m 12,9 km/h (3 Bft)
11.01.2011 10:30 1,6 C 86 % 1006,8 hPa 0,0 mm 3,2 km/h (1 Bft) O-SO 112 10 min 1 UV-I 190 W/m 9,7 km/h (2 Bft)
11.01.2011 10:40 1,7 C 86 % 1006,5 hPa 0,0 mm 4,8 km/h (1 Bft) O-SO 112 0 min 0 UV-I 49 W/m 16,1 km/h (3 Bft)
11.01.2011 10:50 1,9 C 86 % 1006,3 hPa 0,0 mm 4,8 km/h (1 Bft) O-SO 112 0 min 0 UV-I 46 W/m 16,1 km/h (3 Bft)
11.01.2011 11:00 2,1 C 85 % 1006,2 hPa 0,0 mm 3,2 km/h (1 Bft) O-SO 112 0 min 0 UV-I 49 W/m 11,3 km/h (2 Bft)
11.01.2011 11:10 2,3 C 85 % 1006,1 hPa 0,0 mm 3,2 km/h (1 Bft) O-SO 112 0 min 0 UV-I 53 W/m 11,3 km/h (2 Bft)
11.01.2011 11:20 2,5 C 85 % 1006,1 hPa 0,0 mm 3,2 km/h (1 Bft) SO 135 0 min 1 UV-I 58 W/m 9,7 km/h (2 Bft)
11.01.2011 11:30 2,7 C 85 % 1006,1 hPa 0,0 mm 3,2 km/h (1 Bft) SO 135 0 min 1 UV-I 67 W/m 11,3 km/h (2 Bft)
11.01.2011 11:40 2,9 C 84 % 1006,0 hPa 0,0 mm 3,2 km/h (1 Bft) SO 135 10 min 1 UV-I 162 W/m 12,9 km/h (3 Bft)
11.01.2011 11:50 3,2 C 84 % 1005,9 hPa 0,0 mm 1,6 km/h (1 Bft) S 180 10 min 1 UV-I 279 W/m 9,7 km/h (2 Bft)
11.01.2011 12:00 3,4 C 83 % 1005,7 hPa 0,0 mm 3,2 km/h (1 Bft) SO 135 10 min 1 UV-I 302 W/m 9,7 km/h (2 Bft)
11.01.2011 12:10 3,6 C 83 % 1005,6 hPa 0,0 mm 3,2 km/h (1 Bft) S-SO 157 10 min 1 UV-I 302 W/m 17,7 km/h (3 Bft)
11.01.2011 12:20 3,8 C 82 % 1005,4 hPa 0,0 mm 3,2 km/h (1 Bft) S 180 10 min 1 UV-I 309 W/m 14,5 km/h (3 Bft)
11.01.2011 12:30 4,2 C 79 % 1005,3 hPa 0,0 mm 4,8 km/h (1 Bft) S-SO 157 10 min 1 UV-I 313 W/m 12,9 km/h (3 Bft)
11.01.2011 12:40 4,4 C 78 % 1005,3 hPa 0,0 mm 4,8 km/h (1 Bft) S-SO 157 10 min 1 UV-I 313 W/m 19,3 km/h (3 Bft)
11.01.2011 12:50 4,6 C 77 % 1005,3 hPa 0,0 mm 3,2 km/h (1 Bft) SO 135 10 min 1 UV-I 318 W/m 11,3 km/h (2 Bft)
11.01.2011 13:00 4,6 C 77 % 1004,9 hPa 0,0 mm 6,4 km/h (2 Bft) SO 135 10 min 1 UV-I 185 W/m 17,7 km/h (3 Bft)
11.01.2011 13:10 4,3 C 78 % 1004,8 hPa 0,0 mm 3,2 km/h (1 Bft) SO 135 10 min 1 UV-I 274 W/m 9,7 km/h (2 Bft)
11.01.2011 13:20 4,6 C 77 % 1004,5 hPa 0,0 mm 3,2 km/h (1 Bft) O-SO 112 10 min 1 UV-I 316 W/m 12,9 km/h (3 Bft)
11.01.2011 13:30 4,9 C 76 % 1004,2 hPa 0,0 mm 4,8 km/h (1 Bft) SO 135 10 min 1 UV-I 323 W/m 14,5 km/h (3 Bft)
11.01.2011 13:40 5,0 C 76 % 1004,0 hPa 0,0 mm 4,8 km/h (1 Bft) SO 135 10 min 1 UV-I 225 W/m 16,1 km/h (3 Bft)
11.01.2011 13:50 4,8 C 77 % 1004,0 hPa 0,0 mm 4,8 km/h (1 Bft) SO 135 10 min 1 UV-I 167 W/m 20,9 km/h (4 Bft)
11.01.2011 14:00 4,8 C 76 % 1004,0 hPa 0,0 mm 4,8 km/h (1 Bft) S 180 10 min 1 UV-I 162 W/m 14,5 km/h (3 Bft)
11.01.2011 14:10 4,8 C 76 % 1003,9 hPa 0,0 mm 6,4 km/h (2 Bft) O-SO 112 10 min 1 UV-I 148 W/m 19,3 km/h (3 Bft)
11.01.2011 14:20 4,7 C 77 % 1003,9 hPa 0,0 mm 4,8 km/h (1 Bft) SO 135 0 min 1 UV-I 105 W/m 17,7 km/h (3 Bft)
11.01.2011 14:30 4,5 C 78 % 1004,0 hPa 0,0 mm 4,8 km/h (1 Bft) O-SO 112 0 min 0 UV-I 95 W/m 20,9 km/h (4 Bft)
11.01.2011 14:40 4,4 C 78 % 1003,9 hPa 0,0 mm 6,4 km/h (2 Bft) O-SO 112 0 min 0 UV-I 95 W/m 17,7 km/h (3 Bft)
11.01.2011 14:50 4,4 C 78 % 1003,8 hPa 0,0 mm 4,8 km/h (1 Bft) O-SO 112 0 min 0 UV-I 95 W/m 16,1 km/h (3 Bft)
11.01.2011 15:00 4,4 C 79 % 1004,1 hPa 0,0 mm 3,2 km/h (1 Bft) SO 135 0 min 0 UV-I 77 W/m 11,3 km/h (2 Bft)
11.01.2011 15:10 4,3 C 80 % 1004,1 hPa 0,0 mm 3,2 km/h (1 Bft) SO 135 0 min 0 UV-I 44 W/m 9,7 km/h (2 Bft)
11.01.2011 15:20 4,3 C 81 % 1004,2 hPa 0,0 mm 3,2 km/h (1 Bft) SO 135 0 min 0 UV-I 37 W/m 11,3 km/h (2 Bft)
11.01.2011 15:30 4,2 C 82 % 1004,2 hPa 0,3 mm 3,2 km/h (1 Bft) S-SO 157 0 min 0 UV-I 35 W/m 9,7 km/h (2 Bft)
11.01.2011 15:40 4,1 C 84 % 1004,2 hPa 0,0 mm 1,6 km/h (1 Bft) O-SO 112 0 min 0 UV-I 21 W/m 8,0 km/h (2 Bft)
11.01.2011 15:50 3,9 C 85 % 1004,2 hPa 0,0 mm 1,6 km/h (1 Bft) SO 135 0 min 0 UV-I 14 W/m 8,0 km/h (2 Bft)
11.01.2011 16:00 3,9 C 85 % 1004,2 hPa 0,0 mm 4,1 km/h (1 Bft) O-SO 111 0 min 0 UV-I 3 W/m 9,7 km/h (2 Bft)
11.01.2011 16:10 3,8 C 85 % 1004,2 hPa 0,0 mm 3,2 km/h (1 Bft) SO 135 0 min 0 UV-I 7 W/m 9,7 km/h (2 Bft)
11.01.2011 16:20 3,8 C 85 % 1004,2 hPa 0,0 mm 1,6 km/h (1 Bft) SO 135 0 min 0 UV-I 0 W/m 8,0 km/h (2 Bft)
11.01.2011 16:30 3,8 C 85 % 1004,3 hPa 0,0 mm 0,0 km/h (0 Bft) SO 135 0 min 0 UV-I 0 W/m 4,8 km/h (1 Bft)
11.01.2011 16:40 3,7 C 85 % 1004,4 hPa 0,0 mm 1,6 km/h (1 Bft) SO 135 0 min 0 UV-I 0 W/m 8,0 km/h (2 Bft)
11.01.2011 16:50 3,7 C 85 % 1004,4 hPa 0,0 mm 1,6 km/h (1 Bft) S 180 0 min 0 UV-I 0 W/m 6,4 km/h (2 Bft)
11.01.2011 17:00 3,7 C 86 % 1004,6 hPa 0,0 mm 1,6 km/h (1 Bft) SO 135 0 min 0 UV-I 0 W/m 14,5 km/h (3 Bft)
11.01.2011 17:10 3,7 C 86 % 1004,6 hPa 0,0 mm 1,6 km/h (1 Bft) S-SO 157 0 min 0 UV-I 0 W/m 8,0 km/h (2 Bft)
11.01.2011 17:20 3,7 C 86 % 1004,6 hPa 0,0 mm 1,6 km/h (1 Bft) SO 135 0 min 0 UV-I 0 W/m 8,0 km/h (2 Bft)
11.01.2011 17:30 3,7 C 85 % 1004,6 hPa 0,0 mm 1,6 km/h (1 Bft) S-SO 157 0 min 0 UV-I 0 W/m 6,4 km/h (2 Bft)
11.01.2011 17:40 3,7 C 85 % 1004,7 hPa 0,0 mm 1,6 km/h (1 Bft) S-SO 157 0 min 0 UV-I 0 W/m 4,8 km/h (1 Bft)
11.01.2011 17:50 3,7 C 85 % 1004,8 hPa 0,0 mm 0,0 km/h (0 Bft) S-SO 157 0 min 0 UV-I 0 W/m 1,6 km/h (1 Bft)
11.01.2011 18:00 3,7 C 85 % 1004,9 hPa 0,0 mm 0,0 km/h (0 Bft) S-SO 157 0 min 0 UV-I 0 W/m 3,2 km/h (1 Bft)
11.01.2011 18:10 3,7 C 85 % 1004,9 hPa 0,0 mm 0,0 km/h (0 Bft) S-SO 157 0 min 0 UV-I 0 W/m 8,0 km/h (2 Bft)
11.01.2011 18:20 3,8 C 86 % 1005,1 hPa 0,0 mm 1,6 km/h (1 Bft) W-SW 247 0 min 0 UV-I 0 W/m 6,4 km/h (2 Bft)
11.01.2011 18:30 4,0 C 86 % 1005,3 hPa 0,0 mm 1,6 km/h (1 Bft) S-SW 202 0 min 0 UV-I 0 W/m 9,7 km/h (2 Bft)
11.01.2011 18:40 4,2 C 87 % 1005,3 hPa 0,0 mm 3,2 km/h (1 Bft) SW 225 0 min 0 UV-I 0 W/m 12,9 km/h (3 Bft)
11.01.2011 18:50 4,5 C 86 % 1005,5 hPa 0,0 mm 4,8 km/h (1 Bft) SW 225 0 min 0 UV-I 0 W/m 14,5 km/h (3 Bft)
11.01.2011 19:00 4,7 C 86 % 1005,6 hPa 0,0 mm 4,8 km/h (1 Bft) S-SW 202 0 min 0 UV-I 0 W/m 19,3 km/h (3 Bft)
11.01.2011 19:10 4,9 C 86 % 1005,8 hPa 0,0 mm 4,8 km/h (1 Bft) SW 225 0 min 0 UV-I 0 W/m 16,1 km/h (3 Bft)
11.01.2011 19:20 5,1 C 85 % 1005,8 hPa 0,0 mm 3,2 km/h (1 Bft) SW 225 0 min 0 UV-I 0 W/m 9,7 km/h (2 Bft)
11.01.2011 19:30 5,1 C 85 % 1006,0 hPa 0,0 mm 4,8 km/h (1 Bft) SW 225 0 min 0 UV-I 0 W/m 17,7 km/h (3 Bft)
11.01.2011 19:40 5,1 C 85 % 1006,1 hPa 0,0 mm 3,2 km/h (1 Bft) SW 225 0 min 0 UV-I 0 W/m 14,5 km/h (3 Bft)
11.01.2011 19:50 5,2 C 85 % 1006,2 hPa 0,0 mm 1,6 km/h (1 Bft) SW 225 0 min 0 UV-I 0 W/m 8,0 km/h (2 Bft)
11.01.2011 20:00 5,1 C 85 % 1006,2 hPa 0,0 mm 1,6 km/h (1 Bft) W-SW 247 0 min 0 UV-I 0 W/m 8,0 km/h (2 Bft)
11.01.2011 20:10 5,1 C 85 % 1006,3 hPa 0,0 mm 3,2 km/h (1 Bft) SW 225 0 min 0 UV-I 0 W/m 12,9 km/h (3 Bft)
11.01.2011 20:20 5,1 C 86 % 1006,4 hPa 0,0 mm 3,2 km/h (1 Bft) SW 225 0 min 0 UV-I 0 W/m 11,3 km/h (2 Bft)
11.01.2011 20:30 5,1 C 86 % 1006,6 hPa 0,0 mm 1,6 km/h (1 Bft) W-SW 247 0 min 0 UV-I 0 W/m 6,4 km/h (2 Bft)
11.01.2011 20:40 5,0 C 86 % 1006,7 hPa 0,0 mm 1,6 km/h (1 Bft) W-SW 247 0 min 0 UV-I 0 W/m 4,8 km/h (1 Bft)
11.01.2011 20:50 5,0 C 86 % 1006,5 hPa 0,0 mm 1,6 km/h (1 Bft) W-SW 247 0 min 0 UV-I 0 W/m 11,3 km/h (2 Bft)
11.01.2011 21:00 4,9 C 86 % 1006,6 hPa 0,0 mm 1,6 km/h (1 Bft) S-SW 202 0 min 0 UV-I 0 W/m 8,0 km/h (2 Bft)
11.01.2011 21:10 5,0 C 87 % 1006,8 hPa 0,0 mm 1,0 km/h (0 Bft) SW 229 0 min 0 UV-I 0 W/m 1,6 km/h (1 Bft)
11.01.2011 21:20 5,0 C 87 % 1006,8 hPa 0,0 mm 1,9 km/h (1 Bft) SW 225 0 min 0 UV-I 0 W/m 8,0 km/h (2 Bft)
11.01.2011 21:30 5,1 C 87 % 1006,9 hPa 0,0 mm 1,6 km/h (1 Bft) W-SW 247 0 min 0 UV-I 0 W/m 6,4 km/h (2 Bft)
11.01.2011 21:40 5,1 C 87 % 1007,3 hPa 0,0 mm 3,2 km/h (1 Bft) W-SW 247 0 min 0 UV-I 0 W/m 9,7 km/h (2 Bft)
11.01.2011 21:50 5,2 C 88 % 1007,4 hPa 0,0 mm 6,4 km/h (2 Bft) W-SW 247 0 min 0 UV-I 0 W/m 19,3 km/h (3 Bft)
11.01.2011 22:00 5,3 C 88 % 1007,4 hPa 0,0 mm 6,4 km/h (2 Bft) W-SW 247 0 min 0 UV-I 0 W/m 20,9 km/h (4 Bft)
11.01.2011 22:10 5,5 C 89 % 1007,3 hPa 0,0 mm 8,0 km/h (2 Bft) SW 225 0 min 0 UV-I 0 W/m 24,1 km/h (4 Bft)
11.01.2011 22:20 5,6 C 89 % 1007,7 hPa 0,0 mm 6,4 km/h (2 Bft) W-SW 247 0 min 0 UV-I 0 W/m 19,3 km/h (3 Bft)
11.01.2011 22:30 5,7 C 89 % 1007,8 hPa 0,0 mm 9,7 km/h (2 Bft) W-SW 247 0 min 0 UV-I 0 W/m 22,5 km/h (4 Bft)
11.01.2011 22:40 5,8 C 89 % 1007,7 hPa 0,0 mm 9,7 km/h (2 Bft) W-SW 247 0 min 0 UV-I 0 W/m 20,9 km/h (4 Bft)
11.01.2011 22:50 5,8 C 89 % 1007,8 hPa 0,0 mm 8,0 km/h (2 Bft) W-SW 247 0 min 0 UV-I 0 W/m 20,9 km/h (4 Bft)
11.01.2011 23:00 5,8 C 90 % 1007,9 hPa 0,0 mm 9,7 km/h (2 Bft) W-SW 247 0 min 0 UV-I 0 W/m 27,4 km/h (4 Bft)
11.01.2011 23:10 5,8 C 90 % 1008,0 hPa 0,0 mm 8,0 km/h (2 Bft) W-SW 247 0 min 0 UV-I 0 W/m 27,4 km/h (4 Bft)
11.01.2011 23:20 5,8 C 90 % 1008,0 hPa 0,0 mm 8,0 km/h (2 Bft) W-SW 247 0 min 0 UV-I 0 W/m 19,3 km/h (3 Bft)
11.01.2011 23:30 5,9 C 90 % 1008,1 hPa 0,0 mm 8,0 km/h (2 Bft) W-SW 247 0 min 0 UV-I 0 W/m 22,5 km/h (4 Bft)
11.01.2011 23:40 5,9 C 90 % 1008,4 hPa 0,0 mm 9,7 km/h (2 Bft) W-SW 247 0 min 0 UV-I 0 W/m 30,6 km/h (5 Bft)
11.01.2011 23:50 5,9 C 90 % 1008,4 hPa 0,0 mm 6,4 km/h (2 Bft) W-SW 247 0 min 0 UV-I 0 W/m 19,3 km/h (3 Bft)
_ Min-Zeit 02:50 13:30 14:50 - 02:20 - - - - - 02:20
Minimum _ -1,8 C 76 % 1003,8 hPa - 0,0 km/h (0 Bft) - - - - - 1,6 km/h (1 Bft)
_ Max-Zeit 23:10 23:00 00:00 15:30 22:30 - - 10:10 12:00 13:30 23:40
Maximum _ 5,9 C 90 % 1016,4 hPa 0,3 mm 9,7 km/h
W-SW (2 Bft)
- - 10 min 1 UV-I 323 W/m 30,6 km/h
SW (5 Bft)
Durchschnitt _ 2,0 C 86 % 1008,3 hPa #0,3 mm 3,4 km/h (1 Bft) O-SO - #3:10 h 1 UV-I 121 W/m 11,6 km/h (2 Bft)